sensor_id;sensor_type;location;lat;lon;timestamp;P1;durP1;ratioP1;P2;durP2;ratioP2
17145;SDS011;8688;54.444;18.444;2023-04-15T00:02:04;20.88;;;13.10;;
17145;SDS011;8688;54.444;18.444;2023-04-15T00:04:40;19.05;;;12.35;;
17145;SDS011;8688;54.444;18.444;2023-04-15T00:07:08;21.05;;;13.38;;
17145;SDS011;8688;54.444;18.444;2023-04-15T00:09:35;19.50;;;12.45;;
17145;SDS011;8688;54.444;18.444;2023-04-15T00:12:04;21.77;;;13.00;;
17145;SDS011;8688;54.444;18.444;2023-04-15T00:14:32;19.08;;;12.18;;
17145;SDS011;8688;54.444;18.444;2023-04-15T00:17:01;21.75;;;12.82;;
17145;SDS011;8688;54.444;18.444;2023-04-15T00:19:29;18.55;;;12.82;;
17145;SDS011;8688;54.444;18.444;2023-04-15T00:21:58;23.73;;;12.48;;
17145;SDS011;8688;54.444;18.444;2023-04-15T00:24:26;25.63;;;13.95;;
17145;SDS011;8688;54.444;18.444;2023-04-15T00:26:54;19.95;;;12.98;;
17145;SDS011;8688;54.444;18.444;2023-04-15T00:29:23;20.23;;;13.55;;
17145;SDS011;8688;54.444;18.444;2023-04-15T00:31:51;22.42;;;13.27;;
17145;SDS011;8688;54.444;18.444;2023-04-15T00:34:18;18.90;;;13.07;;
17145;SDS011;8688;54.444;18.444;2023-04-15T00:36:46;20.50;;;12.98;;
17145;SDS011;8688;54.444;18.444;2023-04-15T00:39:13;22.02;;;13.75;;
17145;SDS011;8688;54.444;18.444;2023-04-15T00:41:41;22.30;;;13.75;;
17145;SDS011;8688;54.444;18.444;2023-04-15T00:44:09;21.23;;;12.93;;
17145;SDS011;8688;54.444;18.444;2023-04-15T00:46:38;19.05;;;13.23;;
17145;SDS011;8688;54.444;18.444;2023-04-15T00:49:07;18.95;;;12.30;;
17145;SDS011;8688;54.444;18.444;2023-04-15T00:51:34;21.92;;;13.77;;
17145;SDS011;8688;54.444;18.444;2023-04-15T00:54:02;22.70;;;13.90;;
17145;SDS011;8688;54.444;18.444;2023-04-15T00:56:29;22.63;;;14.02;;
17145;SDS011;8688;54.444;18.444;2023-04-15T00:58:59;21.08;;;14.00;;
17145;SDS011;8688;54.444;18.444;2023-04-15T01:01:27;21.58;;;13.65;;
17145;SDS011;8688;54.444;18.444;2023-04-15T01:03:57;23.05;;;14.38;;
17145;SDS011;8688;54.444;18.444;2023-04-15T01:06:25;22.75;;;14.20;;
17145;SDS011;8688;54.444;18.444;2023-04-15T01:08:52;22.70;;;14.25;;
17145;SDS011;8688;54.444;18.444;2023-04-15T01:11:20;22.90;;;14.27;;
17145;SDS011;8688;54.444;18.444;2023-04-15T01:13:48;22.87;;;13.60;;
17145;SDS011;8688;54.444;18.444;2023-04-15T01:16:17;24.65;;;14.05;;
17145;SDS011;8688;54.444;18.444;2023-04-15T01:18:45;20.33;;;12.43;;
17145;SDS011;8688;54.444;18.444;2023-04-15T01:21:14;21.60;;;14.27;;
17145;SDS011;8688;54.444;18.444;2023-04-15T01:23:41;24.48;;;14.20;;
17145;SDS011;8688;54.444;18.444;2023-04-15T01:26:14;20.00;;;13.83;;
17145;SDS011;8688;54.444;18.444;2023-04-15T01:28:42;19.20;;;13.25;;
17145;SDS011;8688;54.444;18.444;2023-04-15T01:31:10;20.98;;;13.95;;
17145;SDS011;8688;54.444;18.444;2023-04-15T01:33:39;20.93;;;13.97;;
17145;SDS011;8688;54.444;18.444;2023-04-15T01:36:08;21.25;;;13.95;;
17145;SDS011;8688;54.444;18.444;2023-04-15T01:38:36;22.67;;;14.17;;
17145;SDS011;8688;54.444;18.444;2023-04-15T01:41:03;21.98;;;14.63;;
17145;SDS011;8688;54.444;18.444;2023-04-15T01:43:33;23.23;;;14.10;;
17145;SDS011;8688;54.444;18.444;2023-04-15T01:46:02;23.35;;;13.80;;
17145;SDS011;8688;54.444;18.444;2023-04-15T01:48:30;21.73;;;13.70;;
17145;SDS011;8688;54.444;18.444;2023-04-15T01:50:58;22.17;;;14.10;;
17145;SDS011;8688;54.444;18.444;2023-04-15T01:53:25;22.60;;;13.68;;
17145;SDS011;8688;54.444;18.444;2023-04-15T01:55:53;20.13;;;13.13;;
17145;SDS011;8688;54.444;18.444;2023-04-15T01:58:21;19.50;;;12.70;;
17145;SDS011;8688;54.444;18.444;2023-04-15T02:00:50;21.45;;;13.48;;
17145;SDS011;8688;54.444;18.444;2023-04-15T02:03:17;18.80;;;13.40;;
17145;SDS011;8688;54.444;18.444;2023-04-15T02:05:45;21.20;;;12.95;;
17145;SDS011;8688;54.444;18.444;2023-04-15T02:08:12;20.70;;;13.07;;
17145;SDS011;8688;54.444;18.444;2023-04-15T02:10:40;20.23;;;13.23;;
17145;SDS011;8688;54.444;18.444;2023-04-15T02:13:07;18.42;;;12.80;;
17145;SDS011;8688;54.444;18.444;2023-04-15T02:15:35;17.58;;;12.23;;
17145;SDS011;8688;54.444;18.444;2023-04-15T02:18:04;18.60;;;12.40;;
17145;SDS011;8688;54.444;18.444;2023-04-15T02:20:32;18.33;;;12.27;;
17145;SDS011;8688;54.444;18.444;2023-04-15T02:23:00;19.98;;;12.43;;
17145;SDS011;8688;54.444;18.444;2023-04-15T02:25:31;21.02;;;12.25;;
17145;SDS011;8688;54.444;18.444;2023-04-15T02:27:58;19.45;;;11.80;;
17145;SDS011;8688;54.444;18.444;2023-04-15T02:30:26;18.88;;;11.77;;
17145;SDS011;8688;54.444;18.444;2023-04-15T02:32:53;17.08;;;11.93;;
17145;SDS011;8688;54.444;18.444;2023-04-15T02:35:22;15.60;;;11.73;;
17145;SDS011;8688;54.444;18.444;2023-04-15T02:37:50;17.60;;;11.60;;
17145;SDS011;8688;54.444;18.444;2023-04-15T02:40:17;16.98;;;11.32;;
17145;SDS011;8688;54.444;18.444;2023-04-15T02:42:45;18.90;;;11.68;;
17145;SDS011;8688;54.444;18.444;2023-04-15T02:45:12;16.92;;;11.25;;
17145;SDS011;8688;54.444;18.444;2023-04-15T02:47:41;18.67;;;11.70;;
17145;SDS011;8688;54.444;18.444;2023-04-15T02:50:10;18.15;;;11.68;;
17145;SDS011;8688;54.444;18.444;2023-04-15T02:52:41;15.77;;;10.95;;
17145;SDS011;8688;54.444;18.444;2023-04-15T02:55:08;18.87;;;11.83;;
17145;SDS011;8688;54.444;18.444;2023-04-15T02:57:36;16.77;;;11.70;;
17145;SDS011;8688;54.444;18.444;2023-04-15T03:00:05;16.50;;;11.30;;
17145;SDS011;8688;54.444;18.444;2023-04-15T03:02:35;15.63;;;11.55;;
17145;SDS011;8688;54.444;18.444;2023-04-15T03:05:03;17.60;;;10.82;;
17145;SDS011;8688;54.444;18.444;2023-04-15T03:07:32;17.52;;;11.07;;
17145;SDS011;8688;54.444;18.444;2023-04-15T03:10:01;15.87;;;10.83;;
17145;SDS011;8688;54.444;18.444;2023-04-15T03:12:28;18.45;;;11.77;;
17145;SDS011;8688;54.444;18.444;2023-04-15T03:14:56;19.65;;;11.70;;
17145;SDS011;8688;54.444;18.444;2023-04-15T03:17:26;15.80;;;10.60;;
17145;SDS011;8688;54.444;18.444;2023-04-15T03:19:53;18.67;;;11.77;;
17145;SDS011;8688;54.444;18.444;2023-04-15T03:22:20;19.38;;;11.77;;
17145;SDS011;8688;54.444;18.444;2023-04-15T03:24:48;21.40;;;11.77;;
17145;SDS011;8688;54.444;18.444;2023-04-15T03:27:17;18.92;;;11.55;;
17145;SDS011;8688;54.444;18.444;2023-04-15T03:29:44;16.27;;;11.25;;
17145;SDS011;8688;54.444;18.444;2023-04-15T03:32:11;18.58;;;10.75;;
17145;SDS011;8688;54.444;18.444;2023-04-15T03:34:40;16.45;;;11.55;;
17145;SDS011;8688;54.444;18.444;2023-04-15T03:37:07;19.98;;;11.45;;
17145;SDS011;8688;54.444;18.444;2023-04-15T03:39:34;16.95;;;11.65;;
17145;SDS011;8688;54.444;18.444;2023-04-15T03:42:02;16.48;;;12.10;;
17145;SDS011;8688;54.444;18.444;2023-04-15T03:44:31;18.00;;;12.10;;
17145;SDS011;8688;54.444;18.444;2023-04-15T03:46:58;16.77;;;12.23;;
17145;SDS011;8688;54.444;18.444;2023-04-15T03:49:26;18.23;;;12.10;;
17145;SDS011;8688;54.444;18.444;2023-04-15T03:51:53;21.83;;;12.57;;
17145;SDS011;8688;54.444;18.444;2023-04-15T03:54:21;19.27;;;12.48;;
17145;SDS011;8688;54.444;18.444;2023-04-15T03:56:49;19.35;;;11.75;;
17145;SDS011;8688;54.444;18.444;2023-04-15T03:59:16;18.50;;;12.50;;
17145;SDS011;8688;54.444;18.444;2023-04-15T04:01:45;19.53;;;12.83;;
17145;SDS011;8688;54.444;18.444;2023-04-15T04:04:13;19.85;;;12.48;;
17145;SDS011;8688;54.444;18.444;2023-04-15T04:06:40;20.30;;;12.65;;
17145;SDS011;8688;54.444;18.444;2023-04-15T04:09:08;18.60;;;12.77;;
17145;SDS011;8688;54.444;18.444;2023-04-15T04:11:36;19.27;;;13.20;;
17145;SDS011;8688;54.444;18.444;2023-04-15T04:14:03;20.35;;;13.02;;
17145;SDS011;8688;54.444;18.444;2023-04-15T04:16:31;18.63;;;12.93;;
17145;SDS011;8688;54.444;18.444;2023-04-15T04:19:00;18.65;;;12.60;;
17145;SDS011;8688;54.444;18.444;2023-04-15T04:21:27;19.90;;;13.52;;
17145;SDS011;8688;54.444;18.444;2023-04-15T04:23:58;21.98;;;13.90;;
17145;SDS011;8688;54.444;18.444;2023-04-15T04:26:25;22.20;;;13.45;;
17145;SDS011;8688;54.444;18.444;2023-04-15T04:28:53;19.95;;;13.02;;
17145;SDS011;8688;54.444;18.444;2023-04-15T04:31:21;21.77;;;13.85;;
17145;SDS011;8688;54.444;18.444;2023-04-15T04:33:48;21.00;;;13.75;;
17145;SDS011;8688;54.444;18.444;2023-04-15T04:36:17;21.00;;;13.60;;
17145;SDS011;8688;54.444;18.444;2023-04-15T04:38:45;19.90;;;12.38;;
17145;SDS011;8688;54.444;18.444;2023-04-15T04:41:12;18.50;;;12.87;;
17145;SDS011;8688;54.444;18.444;2023-04-15T04:43:40;20.63;;;12.93;;
17145;SDS011;8688;54.444;18.444;2023-04-15T04:46:08;22.48;;;13.52;;
17145;SDS011;8688;54.444;18.444;2023-04-15T04:48:36;17.90;;;12.02;;
17145;SDS011;8688;54.444;18.444;2023-04-15T04:51:03;19.63;;;13.48;;
17145;SDS011;8688;54.444;18.444;2023-04-15T04:53:33;22.95;;;13.38;;
17145;SDS011;8688;54.444;18.444;2023-04-15T04:56:01;22.05;;;14.38;;
17145;SDS011;8688;54.444;18.444;2023-04-15T04:58:29;20.15;;;12.63;;
17145;SDS011;8688;54.444;18.444;2023-04-15T05:00:56;21.17;;;13.52;;
17145;SDS011;8688;54.444;18.444;2023-04-15T05:03:24;17.53;;;12.47;;
17145;SDS011;8688;54.444;18.444;2023-04-15T05:05:51;19.92;;;12.93;;
17145;SDS011;8688;54.444;18.444;2023-04-15T05:08:19;21.20;;;12.93;;
17145;SDS011;8688;54.444;18.444;2023-04-15T05:10:48;18.02;;;12.98;;
17145;SDS011;8688;54.444;18.444;2023-04-15T05:13:15;19.30;;;12.73;;
17145;SDS011;8688;54.444;18.444;2023-04-15T05:15:42;23.73;;;13.63;;
17145;SDS011;8688;54.444;18.444;2023-04-15T05:18:11;20.70;;;13.33;;
17145;SDS011;8688;54.444;18.444;2023-04-15T05:20:39;18.27;;;12.73;;
17145;SDS011;8688;54.444;18.444;2023-04-15T05:23:09;19.00;;;12.90;;
17145;SDS011;8688;54.444;18.444;2023-04-15T05:25:36;20.05;;;11.93;;
17145;SDS011;8688;54.444;18.444;2023-04-15T05:28:05;18.17;;;12.02;;
17145;SDS011;8688;54.444;18.444;2023-04-15T05:30:33;20.80;;;13.57;;
17145;SDS011;8688;54.444;18.444;2023-04-15T05:33:00;19.65;;;12.65;;
17145;SDS011;8688;54.444;18.444;2023-04-15T05:35:28;20.67;;;12.97;;
17145;SDS011;8688;54.444;18.444;2023-04-15T05:37:55;21.08;;;12.95;;
17145;SDS011;8688;54.444;18.444;2023-04-15T05:40:22;19.40;;;12.90;;
17145;SDS011;8688;54.444;18.444;2023-04-15T05:42:50;17.67;;;12.70;;
17145;SDS011;8688;54.444;18.444;2023-04-15T05:45:19;19.48;;;12.38;;
17145;SDS011;8688;54.444;18.444;2023-04-15T05:47:47;19.65;;;12.40;;
17145;SDS011;8688;54.444;18.444;2023-04-15T05:50:18;20.92;;;13.30;;
17145;SDS011;8688;54.444;18.444;2023-04-15T05:52:46;20.63;;;13.18;;
17145;SDS011;8688;54.444;18.444;2023-04-15T05:55:13;19.25;;;11.98;;
17145;SDS011;8688;54.444;18.444;2023-04-15T05:57:41;20.90;;;12.55;;
17145;SDS011;8688;54.444;18.444;2023-04-15T06:00:09;19.17;;;13.10;;
17145;SDS011;8688;54.444;18.444;2023-04-15T06:02:38;21.65;;;12.60;;
17145;SDS011;8688;54.444;18.444;2023-04-15T06:05:06;22.52;;;13.20;;
17145;SDS011;8688;54.444;18.444;2023-04-15T06:07:47;20.30;;;12.48;;
17145;SDS011;8688;54.444;18.444;2023-04-15T06:10:14;19.10;;;11.50;;
17145;SDS011;8688;54.444;18.444;2023-04-15T06:12:42;21.20;;;13.07;;
17145;SDS011;8688;54.444;18.444;2023-04-15T06:15:09;16.73;;;11.60;;
17145;SDS011;8688;54.444;18.444;2023-04-15T06:17:38;19.40;;;11.95;;
17145;SDS011;8688;54.444;18.444;2023-04-15T06:20:06;20.27;;;12.55;;
17145;SDS011;8688;54.444;18.444;2023-04-15T06:22:35;18.50;;;12.15;;
17145;SDS011;8688;54.444;18.444;2023-04-15T06:25:03;18.60;;;12.10;;
17145;SDS011;8688;54.444;18.444;2023-04-15T06:27:32;19.77;;;11.57;;
17145;SDS011;8688;54.444;18.444;2023-04-15T06:30:00;17.45;;;11.75;;
17145;SDS011;8688;54.444;18.444;2023-04-15T06:32:27;18.63;;;11.57;;
17145;SDS011;8688;54.444;18.444;2023-04-15T06:34:56;17.60;;;11.45;;
17145;SDS011;8688;54.444;18.444;2023-04-15T06:37:23;16.02;;;10.80;;
17145;SDS011;8688;54.444;18.444;2023-04-15T06:39:51;18.13;;;11.45;;
17145;SDS011;8688;54.444;18.444;2023-04-15T06:42:18;17.33;;;11.30;;
17145;SDS011;8688;54.444;18.444;2023-04-15T06:44:45;18.08;;;11.35;;
17145;SDS011;8688;54.444;18.444;2023-04-15T06:47:13;17.58;;;11.57;;
17145;SDS011;8688;54.444;18.444;2023-04-15T06:49:40;16.70;;;10.77;;
17145;SDS011;8688;54.444;18.444;2023-04-15T06:52:10;18.73;;;10.85;;
17145;SDS011;8688;54.444;18.444;2023-04-15T06:54:38;18.13;;;11.15;;
17145;SDS011;8688;54.444;18.444;2023-04-15T06:57:06;17.77;;;10.70;;
17145;SDS011;8688;54.444;18.444;2023-04-15T06:59:33;17.48;;;11.10;;
17145;SDS011;8688;54.444;18.444;2023-04-15T07:02:00;16.88;;;11.15;;
17145;SDS011;8688;54.444;18.444;2023-04-15T07:04:28;15.23;;;10.27;;
17145;SDS011;8688;54.444;18.444;2023-04-15T07:06:55;17.90;;;11.32;;
17145;SDS011;8688;54.444;18.444;2023-04-15T07:09:24;16.42;;;11.57;;
17145;SDS011;8688;54.444;18.444;2023-04-15T07:11:51;15.82;;;10.40;;
17145;SDS011;8688;54.444;18.444;2023-04-15T07:14:19;20.15;;;10.90;;
17145;SDS011;8688;54.444;18.444;2023-04-15T07:16:46;15.82;;;10.18;;
17145;SDS011;8688;54.444;18.444;2023-04-15T07:19:14;16.55;;;9.75;;
17145;SDS011;8688;54.444;18.444;2023-04-15T07:21:41;13.82;;;10.13;;
17145;SDS011;8688;54.444;18.444;2023-04-15T07:24:09;15.40;;;10.57;;
17145;SDS011;8688;54.444;18.444;2023-04-15T07:26:37;15.38;;;10.10;;
17145;SDS011;8688;54.444;18.444;2023-04-15T07:29:05;17.23;;;9.57;;
17145;SDS011;8688;54.444;18.444;2023-04-15T07:31:32;17.83;;;10.30;;
17145;SDS011;8688;54.444;18.444;2023-04-15T07:34:00;18.30;;;10.50;;
17145;SDS011;8688;54.444;18.444;2023-04-15T07:36:29;17.75;;;9.77;;
17145;SDS011;8688;54.444;18.444;2023-04-15T07:38:56;15.82;;;9.75;;
17145;SDS011;8688;54.444;18.444;2023-04-15T07:41:26;15.23;;;9.65;;
17145;SDS011;8688;54.444;18.444;2023-04-15T07:43:55;17.08;;;10.57;;
17145;SDS011;8688;54.444;18.444;2023-04-15T07:46:22;16.25;;;10.00;;
17145;SDS011;8688;54.444;18.444;2023-04-15T07:48:51;16.60;;;10.18;;
17145;SDS011;8688;54.444;18.444;2023-04-15T07:51:19;17.05;;;10.05;;
17145;SDS011;8688;54.444;18.444;2023-04-15T07:53:46;16.77;;;10.15;;
17145;SDS011;8688;54.444;18.444;2023-04-15T07:56:14;16.13;;;10.15;;
17145;SDS011;8688;54.444;18.444;2023-04-15T07:58:42;13.38;;;8.90;;
17145;SDS011;8688;54.444;18.444;2023-04-15T08:01:11;16.95;;;9.80;;
17145;SDS011;8688;54.444;18.444;2023-04-15T08:03:38;13.98;;;9.32;;
17145;SDS011;8688;54.444;18.444;2023-04-15T08:06:06;13.25;;;9.35;;
17145;SDS011;8688;54.444;18.444;2023-04-15T08:08:33;13.25;;;9.07;;
17145;SDS011;8688;54.444;18.444;2023-04-15T08:11:00;13.35;;;9.02;;
17145;SDS011;8688;54.444;18.444;2023-04-15T08:13:28;13.57;;;9.88;;
17145;SDS011;8688;54.444;18.444;2023-04-15T08:18:41;14.27;;;9.45;;
17145;SDS011;8688;54.444;18.444;2023-04-15T08:21:09;15.27;;;9.20;;
17145;SDS011;8688;54.444;18.444;2023-04-15T08:23:36;15.68;;;9.23;;
17145;SDS011;8688;54.444;18.444;2023-04-15T08:26:04;14.80;;;9.45;;
17145;SDS011;8688;54.444;18.444;2023-04-15T08:28:32;12.82;;;8.88;;
17145;SDS011;8688;54.444;18.444;2023-04-15T08:31:00;14.30;;;8.85;;
17145;SDS011;8688;54.444;18.444;2023-04-15T08:33:29;13.73;;;8.23;;
17145;SDS011;8688;54.444;18.444;2023-04-15T08:35:57;11.68;;;8.88;;
17145;SDS011;8688;54.444;18.444;2023-04-15T08:38:24;13.68;;;9.07;;
17145;SDS011;8688;54.444;18.444;2023-04-15T08:40:51;12.38;;;8.70;;
17145;SDS011;8688;54.444;18.444;2023-04-15T08:43:20;13.23;;;8.75;;
17145;SDS011;8688;54.444;18.444;2023-04-15T08:45:51;14.93;;;9.13;;
17145;SDS011;8688;54.444;18.444;2023-04-15T08:48:18;17.10;;;9.20;;
17145;SDS011;8688;54.444;18.444;2023-04-15T08:50:48;12.18;;;8.75;;
17145;SDS011;8688;54.444;18.444;2023-04-15T08:53:16;13.20;;;8.32;;
17145;SDS011;8688;54.444;18.444;2023-04-15T08:55:44;14.38;;;8.32;;
17145;SDS011;8688;54.444;18.444;2023-04-15T08:58:15;15.60;;;9.60;;
17145;SDS011;8688;54.444;18.444;2023-04-15T09:00:44;14.43;;;8.20;;
17145;SDS011;8688;54.444;18.444;2023-04-15T09:03:12;13.25;;;8.35;;
17145;SDS011;8688;54.444;18.444;2023-04-15T09:05:41;12.35;;;8.30;;
17145;SDS011;8688;54.444;18.444;2023-04-15T09:08:11;11.68;;;8.43;;
17145;SDS011;8688;54.444;18.444;2023-04-15T09:10:38;14.23;;;8.90;;
17145;SDS011;8688;54.444;18.444;2023-04-15T09:13:05;14.52;;;8.52;;
17145;SDS011;8688;54.444;18.444;2023-04-15T09:15:34;15.18;;;9.13;;
17145;SDS011;8688;54.444;18.444;2023-04-15T09:18:04;13.30;;;8.65;;
17145;SDS011;8688;54.444;18.444;2023-04-15T09:20:37;15.98;;;8.65;;
17145;SDS011;8688;54.444;18.444;2023-04-15T09:23:14;12.60;;;8.73;;
17145;SDS011;8688;54.444;18.444;2023-04-15T09:25:41;11.73;;;8.57;;
17145;SDS011;8688;54.444;18.444;2023-04-15T09:28:09;12.60;;;9.25;;
17145;SDS011;8688;54.444;18.444;2023-04-15T09:30:36;14.65;;;9.18;;
17145;SDS011;8688;54.444;18.444;2023-04-15T09:33:04;13.07;;;8.60;;
17145;SDS011;8688;54.444;18.444;2023-04-15T09:35:32;12.73;;;8.85;;
17145;SDS011;8688;54.444;18.444;2023-04-15T09:38:02;14.68;;;9.50;;
17145;SDS011;8688;54.444;18.444;2023-04-15T09:40:32;12.68;;;8.85;;
17145;SDS011;8688;54.444;18.444;2023-04-15T09:43:00;15.93;;;8.70;;
17145;SDS011;8688;54.444;18.444;2023-04-15T09:45:29;13.10;;;8.30;;
17145;SDS011;8688;54.444;18.444;2023-04-15T09:47:58;14.88;;;9.10;;
17145;SDS011;8688;54.444;18.444;2023-04-15T09:50:40;17.00;;;9.13;;
17145;SDS011;8688;54.444;18.444;2023-04-15T09:53:08;12.88;;;8.77;;
17145;SDS011;8688;54.444;18.444;2023-04-15T10:56:19;19.17;;;9.60;;
17145;SDS011;8688;54.444;18.444;2023-04-15T10:58:47;13.82;;;8.90;;
17145;SDS011;8688;54.444;18.444;2023-04-15T11:01:14;13.02;;;8.48;;
17145;SDS011;8688;54.444;18.444;2023-04-15T11:03:42;14.95;;;8.00;;
17145;SDS011;8688;54.444;18.444;2023-04-15T11:06:09;16.63;;;8.63;;
17145;SDS011;8688;54.444;18.444;2023-04-15T11:08:53;11.18;;;7.53;;
17145;SDS011;8688;54.444;18.444;2023-04-15T11:11:25;13.02;;;8.23;;
17145;SDS011;8688;54.444;18.444;2023-04-15T11:14:31;12.75;;;8.60;;
17145;SDS011;8688;54.444;18.444;2023-04-15T11:17:00;13.52;;;7.82;;
17145;SDS011;8688;54.444;18.444;2023-04-15T11:19:34;12.80;;;8.20;;
17145;SDS011;8688;54.444;18.444;2023-04-15T11:22:06;11.95;;;7.65;;
17145;SDS011;8688;54.444;18.444;2023-04-15T11:24:34;13.82;;;8.07;;
17145;SDS011;8688;54.444;18.444;2023-04-15T11:27:04;10.77;;;7.53;;
17145;SDS011;8688;54.444;18.444;2023-04-15T11:29:31;13.65;;;8.52;;
17145;SDS011;8688;54.444;18.444;2023-04-15T11:32:05;14.55;;;8.35;;
17145;SDS011;8688;54.444;18.444;2023-04-15T11:34:34;13.88;;;8.85;;
17145;SDS011;8688;54.444;18.444;2023-04-15T11:37:03;17.58;;;8.77;;
17145;SDS011;8688;54.444;18.444;2023-04-15T11:39:32;13.30;;;8.25;;
17145;SDS011;8688;54.444;18.444;2023-04-15T11:41:59;14.50;;;9.10;;
17145;SDS011;8688;54.444;18.444;2023-04-15T11:44:28;11.88;;;7.95;;
17145;SDS011;8688;54.444;18.444;2023-04-15T11:46:55;12.68;;;7.90;;
17145;SDS011;8688;54.444;18.444;2023-04-15T11:49:26;12.07;;;7.72;;
17145;SDS011;8688;54.444;18.444;2023-04-15T11:51:54;11.15;;;7.60;;
17145;SDS011;8688;54.444;18.444;2023-04-15T11:54:21;11.23;;;7.60;;
17145;SDS011;8688;54.444;18.444;2023-04-15T11:56:49;11.32;;;7.60;;
17145;SDS011;8688;54.444;18.444;2023-04-15T11:59:17;11.55;;;7.38;;
17145;SDS011;8688;54.444;18.444;2023-04-15T12:01:47;10.98;;;7.57;;
17145;SDS011;8688;54.444;18.444;2023-04-15T12:04:14;12.25;;;8.20;;
17145;SDS011;8688;54.444;18.444;2023-04-15T12:06:45;14.32;;;7.80;;
17145;SDS011;8688;54.444;18.444;2023-04-15T12:09:13;10.82;;;7.72;;
17145;SDS011;8688;54.444;18.444;2023-04-15T12:11:42;13.27;;;8.63;;
17145;SDS011;8688;54.444;18.444;2023-04-15T12:14:23;13.32;;;8.45;;
17145;SDS011;8688;54.444;18.444;2023-04-15T12:16:54;12.55;;;7.78;;
17145;SDS011;8688;54.444;18.444;2023-04-15T12:19:24;10.50;;;7.53;;
17145;SDS011;8688;54.444;18.444;2023-04-15T12:21:53;12.70;;;7.65;;
17145;SDS011;8688;54.444;18.444;2023-04-15T12:24:24;11.27;;;7.57;;
17145;SDS011;8688;54.444;18.444;2023-04-15T12:26:52;12.88;;;7.85;;
17145;SDS011;8688;54.444;18.444;2023-04-15T12:29:24;7.97;;;5.65;;
17145;SDS011;8688;54.444;18.444;2023-04-15T12:31:54;13.32;;;8.02;;
17145;SDS011;8688;54.444;18.444;2023-04-15T12:34:26;13.38;;;7.45;;
17145;SDS011;8688;54.444;18.444;2023-04-15T12:36:55;10.52;;;7.20;;
17145;SDS011;8688;54.444;18.444;2023-04-15T12:39:23;12.18;;;7.80;;
17145;SDS011;8688;54.444;18.444;2023-04-15T12:41:52;12.15;;;8.25;;
17145;SDS011;8688;54.444;18.444;2023-04-15T12:44:21;11.48;;;7.82;;
17145;SDS011;8688;54.444;18.444;2023-04-15T12:46:49;11.15;;;7.43;;
17145;SDS011;8688;54.444;18.444;2023-04-15T12:49:18;13.05;;;7.75;;
17145;SDS011;8688;54.444;18.444;2023-04-15T12:51:46;12.20;;;7.70;;
17145;SDS011;8688;54.444;18.444;2023-04-15T12:54:14;13.02;;;7.90;;
17145;SDS011;8688;54.444;18.444;2023-04-15T12:56:42;11.80;;;8.27;;
17145;SDS011;8688;54.444;18.444;2023-04-15T12:59:10;11.57;;;7.47;;
17145;SDS011;8688;54.444;18.444;2023-04-15T13:01:38;11.48;;;7.30;;
17145;SDS011;8688;54.444;18.444;2023-04-15T13:04:06;12.15;;;7.70;;
17145;SDS011;8688;54.444;18.444;2023-04-15T13:06:35;15.73;;;7.70;;
17145;SDS011;8688;54.444;18.444;2023-04-15T13:09:03;12.02;;;7.00;;
17145;SDS011;8688;54.444;18.444;2023-04-15T13:11:31;9.88;;;7.30;;
17145;SDS011;8688;54.444;18.444;2023-04-15T13:13:59;12.25;;;7.95;;
17145;SDS011;8688;54.444;18.444;2023-04-15T13:16:27;11.27;;;7.72;;
17145;SDS011;8688;54.444;18.444;2023-04-15T13:18:54;12.93;;;7.70;;
17145;SDS011;8688;54.444;18.444;2023-04-15T13:21:22;10.85;;;6.97;;
17145;SDS011;8688;54.444;18.444;2023-04-15T13:23:51;12.65;;;8.15;;
17145;SDS011;8688;54.444;18.444;2023-04-15T13:26:18;10.45;;;7.15;;
17145;SDS011;8688;54.444;18.444;2023-04-15T13:28:46;10.63;;;7.30;;
17145;SDS011;8688;54.444;18.444;2023-04-15T13:31:13;14.07;;;7.57;;
17145;SDS011;8688;54.444;18.444;2023-04-15T13:33:40;12.25;;;8.00;;
17145;SDS011;8688;54.444;18.444;2023-04-15T13:36:08;12.25;;;7.93;;
17145;SDS011;8688;54.444;18.444;2023-04-15T13:38:35;11.60;;;8.00;;
17145;SDS011;8688;54.444;18.444;2023-04-15T13:41:04;10.63;;;6.97;;
17145;SDS011;8688;54.444;18.444;2023-04-15T13:43:32;12.35;;;7.85;;
17145;SDS011;8688;54.444;18.444;2023-04-15T13:45:59;14.85;;;7.53;;
17145;SDS011;8688;54.444;18.444;2023-04-15T13:48:27;10.68;;;7.25;;
17145;SDS011;8688;54.444;18.444;2023-04-15T13:50:54;10.77;;;7.10;;
17145;SDS011;8688;54.444;18.444;2023-04-15T13:53:21;11.00;;;6.55;;
17145;SDS011;8688;54.444;18.444;2023-04-15T13:55:48;11.27;;;7.38;;
17145;SDS011;8688;54.444;18.444;2023-04-15T13:58:17;11.60;;;7.10;;
17145;SDS011;8688;54.444;18.444;2023-04-15T14:00:45;12.07;;;7.50;;
17145;SDS011;8688;54.444;18.444;2023-04-15T14:03:12;11.20;;;7.30;;
17145;SDS011;8688;54.444;18.444;2023-04-15T14:05:40;10.85;;;7.35;;
17145;SDS011;8688;54.444;18.444;2023-04-15T14:08:07;11.02;;;7.65;;
17145;SDS011;8688;54.444;18.444;2023-04-15T14:10:35;11.32;;;7.57;;
17145;SDS011;8688;54.444;18.444;2023-04-15T14:13:04;12.93;;;8.23;;
17145;SDS011;8688;54.444;18.444;2023-04-15T14:15:33;14.68;;;7.28;;
17145;SDS011;8688;54.444;18.444;2023-04-15T14:18:01;11.30;;;7.20;;
17145;SDS011;8688;54.444;18.444;2023-04-15T14:20:29;12.60;;;7.90;;
17145;SDS011;8688;54.444;18.444;2023-04-15T14:23:00;9.60;;;7.30;;
17145;SDS011;8688;54.444;18.444;2023-04-15T14:25:29;12.27;;;7.60;;
17145;SDS011;8688;54.444;18.444;2023-04-15T14:27:59;12.02;;;7.53;;
17145;SDS011;8688;54.444;18.444;2023-04-15T14:30:28;11.73;;;7.43;;
17145;SDS011;8688;54.444;18.444;2023-04-15T14:32:58;11.10;;;7.18;;
17145;SDS011;8688;54.444;18.444;2023-04-15T14:35:28;11.18;;;6.80;;
17145;SDS011;8688;54.444;18.444;2023-04-15T14:37:57;14.20;;;8.15;;
17145;SDS011;8688;54.444;18.444;2023-04-15T14:40:26;11.45;;;7.68;;
17145;SDS011;8688;54.444;18.444;2023-04-15T14:42:55;15.57;;;7.85;;
17145;SDS011;8688;54.444;18.444;2023-04-15T14:45:26;12.43;;;7.65;;
17145;SDS011;8688;54.444;18.444;2023-04-15T14:47:57;12.80;;;7.90;;
17145;SDS011;8688;54.444;18.444;2023-04-15T14:50:28;13.15;;;7.60;;
17145;SDS011;8688;54.444;18.444;2023-04-15T14:52:58;13.45;;;7.93;;
17145;SDS011;8688;54.444;18.444;2023-04-15T14:55:26;10.98;;;8.05;;
17145;SDS011;8688;54.444;18.444;2023-04-15T14:57:55;11.23;;;7.70;;
17145;SDS011;8688;54.444;18.444;2023-04-15T15:00:25;11.93;;;7.53;;
17145;SDS011;8688;54.444;18.444;2023-04-15T15:02:57;12.98;;;7.88;;
17145;SDS011;8688;54.444;18.444;2023-04-15T15:05:27;12.95;;;7.70;;
17145;SDS011;8688;54.444;18.444;2023-04-15T15:07:56;13.73;;;8.45;;
17145;SDS011;8688;54.444;18.444;2023-04-15T15:10:25;11.10;;;7.88;;
17145;SDS011;8688;54.444;18.444;2023-04-15T15:12:55;11.57;;;7.75;;
17145;SDS011;8688;54.444;18.444;2023-04-15T15:15:24;11.00;;;7.45;;
17145;SDS011;8688;54.444;18.444;2023-04-15T15:17:55;13.95;;;7.78;;
17145;SDS011;8688;54.444;18.444;2023-04-15T15:20:24;12.75;;;8.27;;
17145;SDS011;8688;54.444;18.444;2023-04-15T15:22:56;13.48;;;8.07;;
17145;SDS011;8688;54.444;18.444;2023-04-15T15:25:25;12.50;;;7.80;;
17145;SDS011;8688;54.444;18.444;2023-04-15T15:27:54;13.90;;;7.88;;
17145;SDS011;8688;54.444;18.444;2023-04-15T15:30:22;11.80;;;7.32;;
17145;SDS011;8688;54.444;18.444;2023-04-15T15:32:50;15.55;;;8.18;;
17145;SDS011;8688;54.444;18.444;2023-04-15T15:35:18;11.37;;;8.00;;
17145;SDS011;8688;54.444;18.444;2023-04-15T15:37:47;12.57;;;7.72;;
17145;SDS011;8688;54.444;18.444;2023-04-15T15:40:16;12.68;;;8.05;;